createdAt,value
2019-02-06T00:00:26.943Z,4.00
2019-02-06T00:03:00.403Z,4.13
2019-02-06T00:05:27.039Z,4.07
2019-02-06T00:07:53.632Z,4.24
2019-02-06T00:10:20.392Z,4.12
2019-02-06T00:12:46.855Z,4.24
2019-02-06T00:15:13.416Z,4.19
2019-02-06T00:17:39.803Z,4.08
2019-02-06T00:20:07.177Z,4.12
2019-02-06T00:22:33.745Z,4.04
2019-02-06T00:25:01.630Z,4.09
2019-02-06T00:27:28.240Z,4.09
2019-02-06T00:29:54.762Z,4.17
2019-02-06T00:32:21.263Z,4.04
2019-02-06T00:34:47.636Z,3.93
2019-02-06T00:37:14.649Z,3.94
2019-02-06T00:39:41.103Z,3.98
2019-02-06T00:42:07.582Z,4.06
2019-02-06T00:44:34.501Z,4.15
2019-02-06T00:47:01.160Z,4.12
2019-02-06T00:49:27.674Z,4.17
2019-02-06T00:51:54.140Z,4.00
2019-02-06T00:54:20.909Z,4.13
2019-02-06T00:56:47.811Z,4.07
2019-02-06T00:59:14.670Z,4.02
2019-02-06T01:01:41.237Z,4.09
2019-02-06T01:04:07.832Z,4.12
2019-02-06T01:06:34.393Z,4.27
2019-02-06T01:09:00.950Z,4.23
2019-02-06T01:11:27.949Z,4.24
2019-02-06T01:13:54.382Z,4.18
2019-02-06T01:16:21.092Z,4.12
2019-02-06T01:18:48.035Z,4.14
2019-02-06T01:21:14.677Z,4.10
2019-02-06T01:23:41.996Z,4.24
2019-02-06T01:26:08.800Z,4.05
2019-02-06T01:28:35.612Z,4.14
2019-02-06T01:31:03.070Z,4.06
2019-02-06T01:33:29.680Z,4.18
2019-02-06T01:35:56.254Z,4.13
2019-02-06T01:38:22.783Z,4.17
2019-02-06T01:40:49.255Z,4.13
2019-02-06T01:43:16.264Z,4.07
2019-02-06T01:45:42.756Z,4.01
2019-02-06T01:48:09.070Z,3.91
2019-02-06T01:50:35.706Z,3.90
2019-02-06T01:53:02.297Z,3.87
2019-02-06T01:55:28.678Z,3.92
2019-02-06T01:57:55.064Z,3.90
2019-02-06T02:00:23.012Z,3.87
2019-02-06T02:02:50.187Z,3.88
2019-02-06T02:05:18.198Z,3.88
2019-02-06T02:07:45.935Z,3.91
2019-02-06T02:10:12.910Z,3.99
2019-02-06T02:12:39.509Z,3.95
2019-02-06T02:15:09.660Z,3.89
2019-02-06T02:17:36.183Z,3.86
2019-02-06T02:20:05.808Z,3.89
2019-02-06T02:22:32.106Z,3.89
2019-02-06T02:25:01.895Z,3.92
2019-02-06T02:27:28.366Z,3.86
2019-02-06T02:29:54.788Z,3.80
2019-02-06T02:32:21.442Z,3.89
2019-02-06T02:34:47.968Z,3.91
2019-02-06T02:37:14.572Z,3.82
2019-02-06T02:39:41.303Z,3.75
2019-02-06T02:42:07.879Z,3.76
2019-02-06T02:44:34.473Z,3.77
2019-02-06T02:47:00.881Z,3.70
2019-02-06T02:49:27.234Z,3.58
2019-02-06T02:51:53.552Z,3.55
2019-02-06T02:54:19.995Z,3.50
2019-02-06T02:56:46.362Z,3.58
2019-02-06T02:59:13.077Z,3.52
2019-02-06T03:01:42.407Z,3.53
2019-02-06T03:04:10.788Z,3.57
2019-02-06T03:06:37.760Z,3.53
2019-02-06T03:09:08.176Z,3.48
2019-02-06T03:11:34.703Z,3.44
2019-02-06T03:14:01.986Z,3.38
2019-02-06T03:16:28.889Z,3.44
2019-02-06T03:18:55.146Z,3.43
2019-02-06T03:21:21.551Z,3.45
2019-02-06T03:23:47.908Z,3.44
2019-02-06T03:26:14.628Z,3.44
2019-02-06T03:28:40.962Z,3.47
2019-02-06T03:31:07.305Z,3.47
2019-02-06T03:33:33.894Z,3.49
2019-02-06T03:36:01.223Z,3.52
2019-02-06T03:38:27.756Z,3.52
2019-02-06T03:40:54.363Z,3.39
2019-02-06T03:43:21.002Z,3.44
2019-02-06T03:45:47.348Z,3.43
2019-02-06T03:48:13.877Z,3.40
2019-02-06T03:50:40.297Z,3.32
2019-02-06T03:53:06.870Z,3.43
2019-02-06T03:55:33.386Z,3.47
2019-02-06T03:57:59.845Z,3.41
2019-02-06T04:00:26.154Z,3.42
2019-02-06T04:02:52.406Z,3.32
2019-02-06T04:05:19.283Z,3.27
2019-02-06T04:07:46.066Z,3.32
2019-02-06T04:10:14.478Z,3.31
2019-02-06T04:12:41.011Z,3.20
2019-02-06T04:15:08.433Z,3.15
2019-02-06T04:17:35.079Z,3.19
2019-02-06T04:20:01.653Z,3.12
2019-02-06T04:22:28.032Z,3.09
2019-02-06T04:24:54.711Z,3.10
2019-02-06T04:27:21.121Z,3.03
2019-02-06T04:29:47.609Z,3.06
2019-02-06T04:32:14.524Z,3.10
2019-02-06T04:34:41.575Z,2.98
2019-02-06T04:37:07.898Z,3.14
2019-02-06T04:39:34.208Z,3.04
2019-02-06T04:42:00.523Z,2.98
2019-02-06T04:44:27.435Z,2.97
2019-02-06T04:46:53.743Z,2.84
2019-02-06T04:49:20.781Z,2.73
2019-02-06T04:51:47.347Z,2.60
2019-02-06T04:54:14.057Z,2.62
2019-02-06T04:56:43.287Z,2.61
2019-02-06T04:59:10.042Z,2.53
2019-02-06T05:01:38.707Z,2.69
2019-02-06T05:04:08.320Z,2.55
2019-02-06T05:06:34.645Z,2.56
2019-02-06T05:09:01.114Z,2.42
2019-02-06T05:11:27.701Z,2.40
2019-02-06T05:13:54.595Z,2.49
2019-02-06T05:16:34.578Z,2.36
2019-02-06T05:19:05.196Z,2.35
2019-02-06T05:21:32.248Z,2.44
2019-02-06T05:23:58.977Z,2.38
2019-02-06T05:26:25.566Z,2.39
2019-02-06T05:28:52.317Z,2.28
2019-02-06T05:31:18.927Z,2.36
2019-02-06T05:33:45.413Z,2.31
2019-02-06T05:36:11.810Z,2.40
2019-02-06T05:38:38.195Z,2.35
2019-02-06T05:41:04.986Z,2.26
2019-02-06T05:43:31.689Z,2.30
2019-02-06T05:45:58.158Z,2.31
2019-02-06T05:48:24.391Z,2.31
2019-02-06T05:50:51.078Z,2.28
2019-02-06T05:53:17.356Z,2.22
2019-02-06T05:55:43.866Z,2.10
2019-02-06T05:58:10.198Z,2.21
2019-02-06T06:00:38.822Z,2.23
2019-02-06T06:03:05.467Z,2.22
2019-02-06T06:05:35.096Z,2.28
2019-02-06T06:08:01.659Z,2.29
2019-02-06T06:10:28.140Z,2.26
2019-02-06T06:12:54.829Z,2.30
2019-02-06T06:15:21.348Z,2.31
2019-02-06T06:17:48.091Z,2.31
2019-02-06T06:20:18.930Z,2.32
2019-02-06T06:22:45.442Z,2.31
2019-02-06T06:25:14.624Z,2.35
2019-02-06T06:27:41.504Z,2.38
2019-02-06T06:30:11.144Z,2.44
2019-02-06T06:32:37.856Z,2.43
2019-02-06T06:38:15.584Z,2.43
2019-02-06T06:40:42.117Z,2.44
2019-02-06T06:43:08.906Z,2.47
2019-02-06T06:45:35.228Z,2.51
2019-02-06T06:48:02.044Z,3.08
2019-02-06T06:50:28.583Z,2.82
2019-02-06T06:52:55.220Z,2.80
2019-02-06T06:55:22.270Z,2.69
2019-02-06T06:57:49.030Z,2.78
2019-02-06T07:00:26.516Z,2.75
2019-02-06T07:02:53.084Z,2.70
2019-02-06T07:05:20.180Z,2.67
2019-02-06T07:07:46.729Z,2.72
2019-02-06T07:10:15.042Z,2.60
2019-02-06T07:12:41.971Z,2.60
2019-02-06T07:15:14.724Z,2.58
2019-02-06T07:17:41.221Z,2.54
2019-02-06T07:20:10.928Z,2.59
2019-02-06T07:22:37.827Z,2.53
2019-02-06T07:25:06.533Z,2.59
2019-02-06T07:27:33.334Z,2.69
2019-02-06T07:29:59.708Z,2.65
2019-02-06T07:32:26.442Z,2.59
2019-02-06T07:34:53.096Z,2.67
2019-02-06T07:37:20.091Z,2.65
2019-02-06T07:39:46.669Z,2.68
2019-02-06T07:42:13.883Z,2.72
2019-02-06T07:44:40.337Z,2.72
2019-02-06T07:47:07.095Z,2.72
2019-02-06T07:49:33.601Z,2.74
2019-02-06T07:51:59.829Z,2.78
2019-02-06T07:54:26.101Z,2.73
2019-02-06T07:56:52.264Z,2.81
2019-02-06T07:59:18.755Z,2.68
2019-02-06T08:01:45.069Z,2.83
2019-02-06T08:04:11.479Z,2.81
2019-02-06T08:06:38.168Z,2.80
2019-02-06T08:09:05.969Z,2.87
2019-02-06T08:11:32.868Z,2.84
2019-02-06T08:13:59.365Z,2.84
2019-02-06T08:16:25.800Z,2.80
2019-02-06T08:18:52.074Z,2.83
2019-02-06T08:21:18.567Z,2.88
2019-02-06T08:23:44.720Z,2.88
2019-02-06T08:26:11.235Z,2.88
2019-02-06T08:28:37.850Z,2.88
2019-02-06T08:31:04.417Z,2.94
2019-02-06T08:33:30.871Z,2.97
2019-02-06T08:35:57.266Z,2.97
2019-02-06T08:38:23.952Z,2.97
2019-02-06T08:40:50.242Z,3.04
2019-02-06T08:43:16.608Z,3.13
2019-02-06T08:45:43.020Z,3.15
2019-02-06T08:48:09.998Z,3.14
2019-02-06T08:50:36.626Z,3.12
2019-02-06T08:53:03.447Z,3.19
2019-02-06T08:55:31.794Z,3.26
2019-02-06T08:57:58.827Z,3.23
2019-02-06T09:00:34.468Z,3.35
2019-02-06T09:03:01.415Z,3.33
2019-02-06T09:05:28.723Z,3.39
2019-02-06T09:07:55.417Z,3.36
2019-02-06T09:10:27.834Z,3.46
2019-02-06T09:12:55.514Z,3.50
2019-02-06T09:15:22.878Z,3.59
2019-02-06T09:17:49.382Z,3.53
2019-02-06T09:20:20.107Z,3.60
2019-02-06T09:22:51.577Z,3.56
2019-02-06T09:25:20.234Z,3.62
2019-02-06T09:27:47.438Z,3.68
2019-02-06T09:30:20.319Z,3.78
2019-02-06T09:32:47.418Z,3.86
2019-02-06T09:35:14.496Z,3.84
2019-02-06T09:37:41.370Z,3.90
2019-02-06T09:40:11.631Z,3.94
2019-02-06T09:42:38.204Z,3.95
2019-02-06T09:45:05.703Z,4.01
2019-02-06T09:47:32.449Z,3.97
2019-02-06T09:49:59.106Z,3.98
2019-02-06T09:52:28.955Z,4.05
2019-02-06T09:55:07.385Z,4.05
2019-02-06T09:57:35.538Z,4.14
2019-02-06T10:00:04.174Z,4.15
2019-02-06T10:02:30.643Z,4.22
2019-02-06T10:04:57.428Z,4.17
2019-02-06T10:07:24.523Z,4.23
2019-02-06T10:09:50.970Z,4.26
2019-02-06T10:12:18.178Z,4.31
2019-02-06T10:14:44.740Z,4.32
2019-02-06T10:17:11.098Z,4.27
2019-02-06T10:19:37.739Z,4.24
2019-02-06T10:22:04.592Z,4.23
2019-02-06T10:24:31.411Z,4.31
2019-02-06T10:26:58.604Z,4.37
2019-02-06T10:29:24.830Z,4.32
2019-02-06T10:31:52.665Z,4.39
2019-02-06T10:34:19.305Z,4.58
2019-02-06T10:36:45.837Z,4.53
2019-02-06T10:39:15.106Z,4.54
2019-02-06T10:41:41.687Z,4.52
2019-02-06T10:44:08.472Z,4.51
2019-02-06T10:46:34.903Z,4.69
2019-02-06T10:49:01.652Z,4.66
2019-02-06T10:51:28.183Z,4.62
2019-02-06T10:53:54.701Z,4.72
2019-02-06T10:56:21.364Z,4.77
2019-02-06T10:58:48.301Z,4.83
2019-02-06T11:01:14.969Z,4.79
2019-02-06T11:03:41.627Z,4.72
2019-02-06T11:06:08.284Z,4.75
2019-02-06T11:08:34.888Z,4.83
2019-02-06T11:11:01.637Z,4.87
2019-02-06T11:13:28.067Z,4.98
2019-02-06T11:15:54.261Z,4.92
2019-02-06T11:18:21.061Z,4.97
2019-02-06T11:20:47.397Z,5.01
2019-02-06T11:23:14.255Z,5.05
2019-02-06T11:25:40.844Z,5.06
2019-02-06T11:28:07.691Z,5.20
2019-02-06T11:30:37.014Z,5.23
2019-02-06T11:33:04.234Z,5.17
2019-02-06T11:35:31.222Z,5.11
2019-02-06T11:37:57.593Z,5.17
2019-02-06T11:40:24.227Z,5.19
2019-02-06T11:42:51.742Z,5.05
2019-02-06T11:45:24.482Z,5.08
2019-02-06T11:47:50.839Z,5.10
2019-02-06T11:50:21.339Z,5.01
2019-02-06T11:52:48.737Z,5.06
2019-02-06T11:55:17.535Z,5.04
2019-02-06T11:57:44.075Z,5.12
2019-02-06T12:00:21.587Z,5.12
2019-02-06T12:02:48.151Z,5.19
2019-02-06T12:05:14.895Z,5.22
2019-02-06T12:07:41.466Z,5.28
2019-02-06T12:10:11.747Z,5.26
2019-02-06T12:12:38.412Z,5.38
2019-02-06T12:15:08.712Z,5.45
2019-02-06T12:17:35.387Z,5.52
2019-02-06T12:20:04.582Z,5.54
2019-02-06T12:22:31.030Z,5.60
2019-02-06T12:24:57.233Z,5.70
2019-02-06T12:27:23.938Z,5.76
2019-02-06T12:29:50.628Z,5.72
2019-02-06T12:32:17.132Z,5.71
2019-02-06T12:34:43.889Z,5.81
2019-02-06T12:37:10.428Z,5.75
2019-02-06T12:39:37.586Z,5.74
2019-02-06T12:42:04.397Z,5.81
2019-02-06T12:44:30.963Z,5.83
2019-02-06T12:46:57.682Z,5.82
2019-02-06T12:49:24.102Z,5.91
2019-02-06T12:51:52.306Z,5.84
2019-02-06T12:54:18.349Z,5.89
2019-02-06T12:56:44.594Z,5.92
2019-02-06T12:59:11.122Z,5.87
2019-02-06T13:01:37.508Z,5.90
2019-02-06T13:04:04.096Z,5.97
2019-02-06T13:06:30.363Z,5.87
2019-02-06T13:08:56.603Z,5.97
2019-02-06T13:11:22.965Z,6.11
2019-02-06T13:13:49.582Z,6.05
2019-02-06T13:16:15.769Z,6.11
2019-02-06T13:18:42.014Z,6.08
2019-02-06T13:21:08.495Z,6.04
2019-02-06T13:23:35.381Z,6.09
2019-02-06T13:26:02.484Z,6.19
2019-02-06T13:28:29.221Z,6.12
2019-02-06T13:30:55.855Z,6.13
2019-02-06T13:33:22.392Z,6.11
2019-02-06T13:35:48.842Z,6.19
2019-02-06T13:38:15.386Z,6.19
2019-02-06T13:40:45.826Z,6.20
2019-02-06T13:43:10.476Z,6.17
2019-02-06T13:45:41.733Z,6.21
2019-02-06T13:48:10.886Z,6.22
2019-02-06T13:50:38.260Z,6.15
2019-02-06T13:53:04.931Z,6.15
2019-02-06T13:55:31.249Z,6.19
2019-02-06T13:57:57.769Z,6.14
2019-02-06T14:00:33.036Z,6.00
2019-02-06T14:02:59.867Z,5.81
2019-02-06T14:05:27.919Z,5.84
2019-02-06T14:07:57.007Z,5.69
2019-02-06T14:10:27.884Z,5.74
2019-02-06T14:12:54.491Z,5.71
2019-02-06T14:15:49.163Z,5.61
2019-02-06T14:18:16.057Z,5.61
2019-02-06T14:20:43.884Z,5.62
2019-02-06T14:23:13.586Z,5.76
2019-02-06T14:25:49.567Z,5.76
2019-02-06T14:28:28.988Z,5.69
2019-02-06T14:31:05.296Z,5.72
2019-02-06T14:33:43.523Z,5.81
2019-02-06T14:36:33.613Z,5.99
2019-02-06T14:39:15.566Z,5.80
2019-02-06T14:42:01.411Z,5.87
2019-02-06T14:44:46.443Z,5.81
2019-02-06T14:47:22.502Z,5.77
2019-02-06T14:49:52.734Z,5.70
2019-02-06T14:52:25.696Z,5.74
2019-02-06T14:55:05.428Z,5.68
2019-02-06T14:58:10.413Z,5.65
2019-02-06T15:00:40.531Z,5.63
2019-02-06T15:03:19.502Z,5.62
2019-02-06T15:05:59.267Z,5.63
2019-02-06T15:08:29.469Z,5.64
2019-02-06T15:11:05.435Z,5.64
2019-02-06T15:13:44.665Z,5.54
2019-02-06T15:16:26.294Z,5.55
2019-02-06T15:18:59.355Z,5.49
2019-02-06T15:21:41.329Z,5.40
2019-02-06T15:24:17.613Z,5.20
2019-02-06T15:27:04.521Z,5.33
2019-02-06T15:29:57.599Z,5.25
2019-02-06T15:32:33.752Z,5.26
2019-02-06T15:35:22.435Z,5.24
2019-02-06T15:37:58.964Z,5.17
2019-02-06T15:40:34.812Z,5.11
2019-02-06T15:43:37.395Z,5.01
2019-02-06T15:46:16.539Z,5.04
2019-02-06T15:48:52.806Z,4.94
2019-02-06T15:51:42.673Z,4.71
2019-02-06T15:54:18.819Z,4.72
2019-02-06T15:57:01.412Z,4.69
2019-02-06T15:59:46.609Z,4.79
2019-02-06T16:02:29.034Z,4.80
2019-02-06T16:05:12.571Z,4.82
2019-02-06T16:07:54.958Z,4.79
2019-02-06T16:10:37.460Z,4.86
2019-02-06T16:13:35.643Z,4.89
2019-02-06T16:16:34.843Z,4.81
2019-02-06T16:19:07.628Z,4.78
2019-02-06T16:21:53.220Z,4.83
2019-02-06T16:24:32.614Z,4.88
2019-02-06T16:27:05.508Z,4.83
2019-02-06T16:29:42.205Z,4.92
2019-02-06T16:32:33.719Z,4.91
2019-02-06T16:35:16.327Z,4.82
2019-02-06T16:37:52.394Z,4.73
2019-02-06T16:40:37.967Z,4.87
2019-02-06T16:43:14.138Z,4.77
2019-02-06T16:46:13.376Z,4.77
2019-02-06T16:48:58.640Z,4.74
2019-02-06T16:51:28.879Z,4.67
2019-02-06T16:54:19.032Z,4.72
2019-02-06T16:57:09.840Z,4.71
2019-02-06T16:59:54.904Z,4.80
2019-02-06T17:02:41.611Z,4.74
2019-02-06T17:05:30.918Z,4.77
2019-02-06T17:11:36.562Z,4.78
2019-02-06T17:14:12.515Z,4.87
2019-02-06T17:16:45.736Z,4.87
2019-02-06T17:19:22.166Z,4.73
2019-02-06T17:22:04.491Z,4.81
2019-02-06T17:28:18.180Z,4.86
2019-02-06T17:30:57.546Z,4.80
2019-02-06T17:33:39.679Z,4.86
2019-02-06T17:39:36.613Z,4.92
2019-02-06T17:42:21.880Z,4.91
2019-02-06T17:44:58.368Z,5.01
2019-02-06T17:51:01.515Z,4.92
2019-02-06T17:53:40.671Z,4.87
2019-02-06T17:56:07.383Z,4.92
2019-02-06T17:58:34.822Z,4.95
2019-02-06T18:01:05.062Z,5.00
2019-02-06T18:03:35.113Z,5.03
2019-02-06T18:06:01.728Z,5.02
2019-02-06T18:11:41.976Z,5.06
2019-02-06T18:14:08.496Z,5.21
2019-02-06T18:16:34.955Z,5.19
2019-02-06T18:19:01.322Z,5.26
2019-02-06T18:21:27.538Z,5.28
2019-02-06T18:23:53.796Z,5.24
2019-02-06T18:26:20.204Z,5.28
2019-02-06T18:32:10.575Z,5.25
2019-02-06T18:37:50.897Z,5.31
2019-02-06T18:40:19.776Z,5.36
2019-02-06T18:46:13.345Z,5.38
2019-02-06T18:55:03.544Z,5.41
2019-02-06T19:01:05.361Z,5.35
2019-02-06T19:06:43.803Z,5.36
2019-02-06T19:09:10.461Z,5.32
2019-02-06T19:11:36.816Z,5.41
2019-02-06T19:14:03.352Z,5.41
2019-02-06T19:16:29.953Z,5.41
2019-02-06T19:19:00.424Z,5.38
2019-02-06T19:21:28.083Z,5.38
2019-02-06T19:23:54.485Z,5.36
2019-02-06T19:26:20.964Z,5.39
2019-02-06T19:28:47.298Z,5.45
2019-02-06T19:34:37.494Z,5.41
2019-02-06T19:37:04.870Z,5.35
2019-02-06T19:39:35.226Z,5.41
2019-02-06T19:45:39.855Z,5.43
2019-02-06T19:48:15.710Z,5.52
2019-02-06T19:50:46.184Z,5.49
2019-02-06T19:56:36.100Z,5.47
2019-02-06T19:59:04.646Z,5.50
2019-02-06T20:01:31.063Z,5.52
2019-02-06T20:03:57.605Z,5.53
2019-02-06T20:06:29.995Z,5.55
2019-02-06T20:08:57.592Z,5.57
2019-02-06T20:11:24.797Z,5.62
2019-02-06T20:17:14.449Z,5.78
2019-02-06T20:19:43.801Z,5.95
2019-02-06T20:22:10.144Z,5.91
2019-02-06T20:24:36.455Z,5.94
2019-02-06T20:27:11.823Z,5.94
2019-02-06T20:29:38.499Z,6.01
2019-02-06T20:32:05.387Z,5.92
2019-02-06T20:34:31.671Z,5.84
2019-02-06T20:36:58.454Z,5.84
2019-02-06T20:39:24.790Z,5.86
2019-02-06T20:41:56.317Z,5.79
2019-02-06T20:44:25.241Z,5.74
2019-02-06T20:46:55.959Z,5.80
2019-02-06T20:49:23.192Z,5.82
2019-02-06T20:51:51.619Z,5.75
2019-02-06T20:54:20.447Z,5.83
2019-02-06T20:56:47.701Z,5.78
2019-02-06T20:59:14.061Z,5.70
2019-02-06T21:01:40.989Z,5.71
2019-02-06T21:04:07.364Z,5.72
2019-02-06T21:06:38.099Z,5.67
2019-02-06T21:09:08.238Z,5.62
2019-02-06T21:11:35.423Z,5.79
2019-02-06T21:14:04.531Z,5.66
2019-02-06T21:16:30.955Z,5.74
2019-02-06T21:18:57.291Z,5.67
2019-02-06T21:21:23.660Z,5.67
2019-02-06T21:23:49.849Z,5.60
2019-02-06T21:26:16.347Z,5.65
2019-02-06T21:28:43.738Z,5.67
2019-02-06T21:31:10.819Z,5.76
2019-02-06T21:33:46.329Z,5.67
2019-02-06T21:36:07.694Z,5.61
2019-02-06T21:38:37.497Z,5.70
2019-02-06T21:41:03.711Z,5.61
2019-02-06T21:43:30.428Z,5.71
2019-02-06T21:45:57.194Z,5.67
2019-02-06T21:48:24.487Z,5.78
2019-02-06T21:50:53.216Z,5.70
2019-02-06T21:53:19.608Z,5.75
2019-02-06T21:55:46.023Z,5.74
2019-02-06T21:58:14.438Z,5.76
2019-02-06T22:00:42.251Z,5.69
2019-02-06T22:03:10.691Z,5.71
2019-02-06T22:05:38.129Z,5.77
2019-02-06T22:08:05.358Z,5.66
2019-02-06T22:10:32.235Z,5.65
2019-02-06T22:13:01.903Z,5.64
2019-02-06T22:15:30.208Z,5.61
2019-02-06T22:17:56.511Z,5.57
2019-02-06T22:20:23.988Z,5.53
2019-02-06T22:22:50.517Z,5.46
2019-02-06T22:25:17.042Z,5.38
2019-02-06T22:27:43.397Z,5.36
2019-02-06T22:30:16.249Z,5.41
2019-02-06T22:32:43.089Z,5.35
2019-02-06T22:35:12.047Z,5.28
2019-02-06T22:37:38.746Z,5.24
2019-02-06T22:40:14.574Z,5.27
2019-02-06T22:42:43.163Z,5.23
2019-02-06T22:45:13.997Z,5.30
2019-02-06T22:47:40.431Z,5.20
2019-02-06T22:50:16.122Z,5.25
2019-02-06T22:52:43.045Z,5.21
2019-02-06T22:55:12.820Z,5.21
2019-02-06T22:57:43.106Z,5.23
2019-02-06T23:00:28.206Z,5.23
2019-02-06T23:02:54.959Z,5.01
2019-02-06T23:05:21.552Z,5.09
2019-02-06T23:07:48.997Z,5.13
2019-02-06T23:10:16.497Z,5.11
2019-02-06T23:12:42.830Z,5.09
2019-02-06T23:15:11.059Z,4.97
2019-02-06T23:17:37.716Z,5.00
2019-02-06T23:20:07.798Z,5.01
2019-02-06T23:22:34.266Z,4.94
2019-02-06T23:25:00.837Z,4.88
2019-02-06T23:27:27.526Z,4.94
2019-02-06T23:29:53.902Z,5.00
2019-02-06T23:32:20.309Z,4.92
2019-02-06T23:34:47.199Z,4.82
2019-02-06T23:37:13.799Z,4.92
2019-02-06T23:39:40.259Z,4.92
2019-02-06T23:42:06.634Z,4.97
2019-02-06T23:44:33.070Z,5.01
2019-02-06T23:46:59.389Z,4.98
2019-02-06T23:49:25.574Z,4.97
2019-02-06T23:51:52.087Z,4.97
2019-02-06T23:54:18.666Z,4.92
2019-02-06T23:56:45.046Z,4.90
2019-02-06T23:59:12.081Z,4.83
